Relevés horaires Beauvechain (Belgique)


Relevés horaires à Beauvechain - Samedi 22 Juill. 2017
Heure UTC1 Température [°C] Vent [km/h] Hum. [%] Pres.4 [hPa] Visi. [Km] Nébu. [octa] Préc.5 [mm] Cond.
2m. Res. Ros. Dir.2 Vit. Moy. Raf.3
23:00 14.1 13.9 13.3 OSO 7.4 -- 14.8 95 1012.7(0.4/3h) 20 -- -- Il y a de la pluie faible et continue à la station au moment de l'observation
22:00 15.6 15.6 14.6 OSO 5.6 -- 11.1 94 1012.6(0.5/3h) 20 -- -- --
21:00 15.6 15.6 14.6 NNO 1.9 -- 9.3 94 1012.5(0.7/3h) 20 -- -- NA
20:00 16.7 16.7 15.4 SSE 3.7 -- 7.4 92 1012.2(0.3/3h) 20 -- -- NA
19:00 16.3 16.3 15.8 SO 5.6 -- 9.3 97 1011.8(0.0/3h) 20 -- -- Il y a de la pluie faible et continue à la station au moment de l'observation
18:00 20.0 20.0 14.8 SSO 7.4 -- 20.4 72 1011.3(-0.2/3h) 20 -- -- NA
17:00 20.1 20.1 13.9 S 9.3 -- 18.5 68 1011.6(-0.1/3h) 20 -- -- --
16:00 21.5 21.5 13.2 SSO 13.0 -- 18.5 59 1011.7(0.1/3h) 20 -- -- --
15:00 21.2 21.2 12.7 SSO 11.1 -- 20.4 58 1011.6(0.2/3h) 20 -- -- NA
14:00 22.7 22.7 11.4 SSO 14.8 -- 20.4 49 1011.6(0.2/3h) 20 -- -- --
13:00 22.6 22.6 11.2 SO 9.3 -- 16.7 49 1011.6(0.0/3h) 20 -- -- --
12:00 23.2 23.2 10.7 SSO 11.1 -- 22.2 45 1011.2(-0.2/3h) 20 -- -- --
11:00 23.7 23.7 10.3 S 9.3 -- 16.7 43 1011.2(0.0/3h) 20 -- -- --
10:00 22.7 22.7 11.0 SSO 11.1 -- 20.4 48 1011.5(0.2/3h) 20 -- -- --
09:00 21.7 21.7 10.0 SSO 13.0 -- 22.2 47 1011.6(0.7/3h) 20 -- -- --
08:00 20.8 20.8 10.7 SSO 11.1 -- 18.5 52 1011.5(0.8/3h) 20 -- -- --
07:00 19.9 19.9 10.3 SO 9.3 -- 14.8 54 1011.3(1.2/3h) 20 -- -- --
06:00 18.2 18.2 11.5 S 5.6 -- 9.3 65 1011.1(0.5/3h) 20 -- -- --
05:00 17.0 17.0 10.8 S 3.7 -- 7.4 67 1010.7(0.3/3h) 20 -- -- --
04:00 16.2 16.2 9.9 NNO 1.9 -- 5.6 66 1010.3(-0.3/3h) 20 -- -- --
03:00 16.5 16.5 9.9 S 3.7 -- 7.4 65 1010.5(-0.1/3h) 20 -- -- --
02:00 17.1 17.1 9.8 NNO 1.9 -- 5.6 62 1010.3(0.0/3h) 20 -- -- --
01:00 17.5 17.5 10.3 SSO 5.6 -- 7.4 63 1010.6(0.5/3h) 20 -- -- --
00:00 18.7 18.7 10.4 S 5.6 -- 9.3 58 1010.6(0.7/3h) 20 -- -- --

1 Coordinated Universal Time. Actuellement il est 09:00 locale et 08:00 UTC.

2 Le vent souffle depuis la direction indiquée vers la direction oposée.

3 Les rafales max. sont disponible 40 min après l'heure du relevé.

4 Pour les stations d'altitude (plus de 600m) le géopotentiel du niveau le plus proche de la pression obligatoire est indiqué.

5 Les stations disposant d'un diffuseur peuvent indiquer "trace". Cela signifie que des précipitations ont touchés le sol mais que la quantité est inférieure à 0.1 mm.

Récapitulatif de la journée
Température [°C] Vent [km/h] Ensoleillement4 [h] Precipitations totale5 [mm] Pression [Hpa]
Min1 Max.2 Moy.3 Max. Min Max.
15.8 24.2 0 22.2 0 h 0 min 0 1010.3 1012.7

1 Température minimale relevée entre 18:00 UTC la veille et 18:00 UTC le jour donné.

2 Température maximale relevée entre 06:00 UTC le jour donné et 06:00 UTC le lendemain.

3 Vent moyen de la journée basé sur les relevés horaires.

4 Ensoleillement en heures relevé entre 06:00 UTC la veille et 06:00 UTC le jour donné.

5 Précipitations totales tombées entre 06:00 UTC la jour donné et 06:00 UTC le lendemain.

Graphiques horaires